Time;durP1;ratioP1;P1;durP2;ratioP2;P2;SDS_P1;SDS_P2;PMS_P1;PMS_P2;Temp;Humidity;BMP_temperature;BMP_pressure;BME280_temperature;BME280_humidity;BME280_pressure;Samples;Min_cycle;Max_cycle;Signal;HPM_P1;HPM_P2
2022/03/23 00:04:05;;;;;;;14.65;10.30;;;;;;;8.19;26.91;99265.75;12551742;23;20015;-79
2022/03/23 00:09:27;;;;;;;14.88;10.48;;;;;;;8.17;27.14;99268.34;12540860;23;20027;-78
2022/03/23 00:15:08;;;;;;;14.95;9.80;;;;;;;8.11;27.29;99267.75;12565524;23;20464;-78
2022/03/23 00:20:29;;;;;;;16.83;10.30;;;;;;;8.04;27.71;99260.06;12560284;23;20030;-78
2022/03/23 00:25:49;;;;;;;18.35;11.75;;;;;;;8.02;27.97;99257.09;12580596;23;20031;-78
2022/03/23 00:31:11;;;;;;;16.58;11.23;;;;;;;7.95;27.75;99257.75;12566156;23;20023;-79
2022/03/23 00:36:34;;;;;;;18.83;12.02;;;;;;;7.83;27.76;99260.03;12562006;23;20019;-79
2022/03/23 00:41:54;;;;;;;22.20;11.90;;;;;;;7.72;27.88;99258.25;12560472;23;20034;-78
2022/03/23 00:47:20;;;;;;;18.58;12.23;;;;;;;7.66;28.53;99257.63;12560021;23;20015;-79
2022/03/23 00:52:42;;;;;;;24.50;13.38;;;;;;;7.65;28.44;99247.81;12559460;23;20014;-79
2022/03/23 00:58:03;;;;;;;22.63;13.00;;;;;;;7.54;28.76;99250.09;12541566;23;20023;-78
2022/03/23 01:03:24;;;;;;;22.00;14.32;;;;;;;7.43;28.82;99246.25;12539651;23;20457;-78
2022/03/23 01:08:46;;;;;;;24.90;14.80;;;;;;;7.38;28.98;99240.81;12539958;23;20066;-79
2022/03/23 01:14:08;;;;;;;21.85;13.15;;;;;;;7.33;29.18;99233.34;12539224;23;20023;-78
2022/03/23 01:19:31;;;;;;;20.95;12.30;;;;;;;7.26;29.22;99228.44;12519905;23;20022;-79
2022/03/23 01:24:52;;;;;;;22.48;12.73;;;;;;;7.15;29.10;99229.44;12519555;23;20019;-79
2022/03/23 01:30:13;;;;;;;18.75;12.73;;;;;;;7.06;29.54;99216.72;12518775;23;20404;-78
2022/03/23 01:35:34;;;;;;;19.38;12.35;;;;;;;7.01;29.64;99214.06;12560681;23;20095;-79
2022/03/23 01:40:55;;;;;;;25.13;13.05;;;;;;;6.95;29.59;99216.19;12543093;23;20070;-81
2022/03/23 01:46:17;;;;;;;23.17;13.15;;;;;;;6.85;29.87;99215.88;12522660;23;20101;-79
2022/03/23 01:51:38;;;;;;;21.27;13.23;;;;;;;6.81;29.74;99210.66;12541067;23;20442;-78
2022/03/23 01:56:59;;;;;;;20.88;13.27;;;;;;;6.79;30.14;99198.59;12542016;23;20057;-78
2022/03/23 02:02:20;;;;;;;19.77;13.30;;;;;;;6.71;30.24;99203.28;12539515;23;20019;-79
2022/03/23 02:07:49;;;;;;;23.58;13.60;;;;;;;6.58;30.11;99204.78;12545265;23;20362;-78
2022/03/23 02:13:10;;;;;;;21.42;14.10;;;;;;;6.53;30.59;99193.78;12541650;23;20120;-79
2022/03/23 02:18:31;;;;;;;21.48;12.95;;;;;;;6.52;30.47;99186.75;12543036;23;20064;-79
2022/03/23 02:23:52;;;;;;;18.95;12.65;;;;;;;6.40;30.38;99191.75;12543003;23;20439;-78
2022/03/23 02:29:14;;;;;;;24.33;14.00;;;;;;;6.35;30.32;99189.81;12542678;23;20079;-79
2022/03/23 02:34:35;;;;;;;22.13;14.00;;;;;;;6.36;30.78;99185.75;12542713;23;20019;-79
2022/03/23 02:39:56;;;;;;;23.50;13.05;;;;;;;6.38;30.40;99176.94;12540593;23;20081;-78
2022/03/23 02:45:18;;;;;;;21.23;12.60;;;;;;;6.34;30.99;99182.78;12560508;23;20050;-77
2022/03/23 02:50:39;;;;;;;18.35;12.27;;;;;;;6.31;30.80;99189.38;12542694;23;20019;-79
2022/03/23 03:01:59;;;;;;;18.55;11.27;;;;;;;6.07;31.47;99192.31;12544189;23;20043;-78
2022/03/23 03:07:21;;;;;;;17.80;10.90;;;;;;;6.07;30.98;99181.22;12540726;23;20026;-78
2022/03/23 03:12:43;;;;;;;22.42;12.52;;;;;;;6.13;31.49;99181.88;12560070;23;20050;-79
2022/03/23 03:18:04;;;;;;;17.95;11.73;;;;;;;6.08;31.14;99188.25;12520153;23;20026;-79
2022/03/23 03:23:25;;;;;;;18.38;12.20;;;;;;;5.95;31.31;99180.66;12558840;23;20026;-79
2022/03/23 03:28:50;;;;;;;18.25;12.38;;;;;;;5.94;31.42;99184.72;12553583;23;20030;-78
2022/03/23 03:34:11;;;;;;;18.83;12.25;;;;;;;5.87;31.97;99186.03;12562401;23;20057;-79
2022/03/23 03:39:32;;;;;;;18.95;13.00;;;;;;;5.80;31.93;99178.38;12561650;23;20030;-79
2022/03/23 03:44:53;;;;;;;22.73;13.13;;;;;;;5.75;32.09;99181.97;12543306;23;20075;-79
2022/03/23 03:50:13;;;;;;;21.45;13.68;;;;;;;5.64;32.52;99179.38;12544130;23;20022;-79
2022/03/23 03:55:36;;;;;;;22.75;13.23;;;;;;;5.60;32.16;99179.69;12524443;23;20023;-78
2022/03/23 04:00:57;;;;;;;17.77;12.25;;;;;;;5.46;32.54;99180.88;12538111;23;20081;-79
2022/03/23 04:06:18;;;;;;;19.33;12.38;;;;;;;5.47;32.11;99185.91;12522466;23;20019;-79
2022/03/23 04:11:40;;;;;;;19.17;11.27;;;;;;;5.49;32.25;99190.16;12539854;23;20030;-78
2022/03/23 04:17:00;;;;;;;20.70;12.70;;;;;;;5.44;32.76;99191.75;12518701;23;20331;-78
2022/03/23 04:22:21;;;;;;;23.33;12.82;;;;;;;5.34;32.57;99190.63;12540559;23;20050;-79
2022/03/23 04:27:50;;;;;;;17.05;11.52;;;;;;;5.20;32.56;99194.59;12561960;23;20070;-79
2022/03/23 04:33:10;;;;;;;17.27;10.95;;;;;;;5.08;32.71;99196.75;12522888;23;20067;-79
2022/03/23 04:38:31;;;;;;;17.40;11.93;;;;;;;5.00;33.59;99196.59;12554311;23;20074;-80
2022/03/23 04:43:52;;;;;;;18.35;11.68;;;;;;;4.98;33.40;99203.94;12522796;23;20071;-80
2022/03/23 04:49:14;;;;;;;21.27;12.60;;;;;;;4.96;33.77;99203.69;12542633;23;20018;-79
2022/03/23 04:54:35;;;;;;;23.35;13.93;;;;;;;5.00;34.00;99202.13;12562062;23;20461;-80
2022/03/23 04:59:58;;;;;;;21.80;12.23;;;;;;;4.94;33.91;99197.94;12538507;23;20018;-80
2022/03/23 05:05:20;;;;;;;23.13;13.80;;;;;;;4.99;33.84;99200.63;12539649;23;20082;-80
2022/03/23 05:10:40;;;;;;;24.73;13.75;;;;;;;5.08;34.14;99202.28;12559978;23;20019;-80
2022/03/23 05:16:01;;;;;;;21.50;13.27;;;;;;;5.32;33.84;99210.53;12541494;23;20047;-80
2022/03/23 05:21:22;;;;;;;22.60;14.60;;;;;;;5.57;34.27;99200.09;12543731;23;20034;-80
2022/03/23 05:26:45;;;;;;;27.90;15.20;;;;;;;5.88;33.92;99204.16;12582647;23;20047;-80
2022/03/23 05:32:16;;;;;;;21.42;14.52;;;;;;;6.23;33.83;99210.69;12543725;23;20026;-79
2022/03/23 05:37:42;;;;;;;21.92;14.30;;;;;;;6.72;33.71;99204.78;12536916;23;20026;-79
2022/03/23 05:43:48;;;;;;;25.02;14.85;;;;;;;7.53;33.22;99204.09;12535266;23;20023;-79
2022/03/23 05:49:09;;;;;;;24.90;15.07;;;;;;;9.03;33.01;99201.63;12491032;23;20071;-79
2022/03/23 05:54:34;;;;;;;;;;;;;;;13.10;29.85;99204.06;12513843;23;20316;-79
2022/03/23 06:00:11;;;;;;;24.35;16.35;;;;;;;16.23;28.40;99215.50;12560843;23;20241;-80
2022/03/23 06:05:35;;;;;;;23.73;15.70;;;;;;;18.74;24.93;99204.69;12562890;23;20039;-79
2022/03/23 06:11:14;;;;;;;25.27;16.17;;;;;;;20.55;21.45;99199.75;12372757;24;20531;-79
2022/03/23 06:17:01;;;;;;;24.95;16.13;;;;;;;20.34;22.20;99203.59;12346670;24;20452;-84
2022/03/23 06:22:40;;;;;;;22.77;16.02;;;;;;;20.54;21.80;99203.94;12321409;24;20071;-83
2022/03/23 06:28:27;;;;;;;25.55;16.08;;;;;;;20.37;20.52;99196.69;12403112;23;20027;-80
2022/03/23 06:33:59;;;;;;;17.02;14.32;;;;;;;19.94;21.74;99210.69;12419917;23;20136;-81
2022/03/23 06:39:39;;;;;;;20.65;14.38;;;;;;;20.58;23.00;99207.75;12440537;23;20554;-80
2022/03/23 06:45:18;;;;;;;17.40;13.68;;;;;;;25.27;19.82;99208.19;12541016;23;20045;-81
2022/03/23 06:50:43;;;;;;;16.92;13.63;;;;;;;31.69;13.87;99220.88;12541129;23;20015;-80
2022/03/23 06:56:22;;;;;;;20.25;14.02;;;;;;;36.09;9.17;99226.41;12508343;23;20023;-81
2022/03/23 07:01:53;;;;;;;17.55;13.57;;;;;;;38.86;7.26;99225.31;12521775;23;20025;-81
2022/03/23 07:07:30;;;;;;;15.90;13.40;;;;;;;40.93;5.08;99229.94;12525073;23;20078;-83
2022/03/23 07:13:10;;;;;;;20.03;13.73;;;;;;;41.98;3.49;99224.88;12543228;23;20026;-83
2022/03/23 07:18:56;;;;;;;16.38;12.60;;;;;;;43.19;3.95;99232.72;12453803;23;20252;-83
2022/03/23 07:24:30;;;;;;;14.70;11.05;;;;;;;44.12;2.58;99231.59;12494723;23;20398;-82
2022/03/23 07:29:59;;;;;;;16.75;12.70;;;;;;;44.90;2.81;99219.88;12466220;23;20154;-81
2022/03/23 07:35:33;;;;;;;13.73;10.85;;;;;;;46.39;2.01;99223.97;12451546;23;20030;-81
2022/03/23 07:41:20;;;;;;;13.02;10.95;;;;;;;46.55;1.59;99208.31;12462249;23;20070;-81
2022/03/23 07:46:49;;;;;;;13.10;10.65;;;;;;;47.76;1.41;99217.47;12491342;23;20019;-81
2022/03/23 07:52:27;;;;;;;17.23;10.70;;;;;;;48.69;0.88;99219.06;12498783;23;20078;-81
2022/03/23 07:57:58;;;;;;;17.83;11.30;;;;;;;47.84;0.81;99210.34;12538270;23;20025;-81
2022/03/23 08:03:29;;;;;;;14.95;10.80;;;;;;;48.21;0.80;99211.03;12487098;23;20033;-80
2022/03/23 08:09:09;;;;;;;17.23;11.55;;;;;;;47.85;0.87;99209.53;12505917;23;20030;-81
2022/03/23 08:14:46;;;;;;;20.08;11.25;;;;;;;48.69;0.56;99210.91;12480006;23;20025;-80
2022/03/23 08:20:39;;;;;;;21.40;10.67;;;;;;;48.16;0.55;99204.66;12539103;23;20098;-81
2022/03/23 08:26:39;;;;;;;19.55;10.35;;;;;;;47.99;0.66;99213.88;12549339;23;20438;-81
2022/03/23 08:32:16;;;;;;;15.35;10.85;;;;;;;48.87;0.22;99211.94;12538623;23;20033;-80
2022/03/23 08:38:04;;;;;;;15.38;9.88;;;;;;;50.14;0.15;99206.97;12539974;23;20346;-80
2022/03/23 08:43:40;;;;;;;15.60;9.80;;;;;;;50.59;0.62;99213.34;12579004;23;20019;-81
2022/03/23 08:49:11;;;;;;;12.00;7.63;;;;;;;50.44;0.00;99207.03;12520380;23;20023;-81
2022/03/23 08:55:05;;;;;;;12.40;8.27;;;;;;;50.42;0.18;99198.28;12543175;23;20019;-81
2022/03/23 09:00:37;;;;;;;8.80;7.20;;;;;;;50.40;0.00;99195.47;12539759;23;20022;-81
2022/03/23 09:06:24;;;;;;;14.10;7.30;;;;;;;50.31;0.14;99200.56;12527134;23;20099;-81
2022/03/23 09:12:26;;;;;;;19.85;7.25;;;;;;;49.47;0.00;99191.59;12528127;23;20025;-82
2022/03/23 09:18:10;;;;;;;13.27;6.60;;;;;;;49.28;0.00;99203.28;12540555;23;20026;-80
2022/03/23 09:23:43;;;;;;;10.52;6.25;;;;;;;50.02;0.00;99190.72;12559473;23;20342;-80
2022/03/23 09:29:45;;;;;;;7.28;6.00;;;;;;;50.07;0.00;99185.91;12502544;23;20027;-81
2022/03/23 09:36:04;;;;;;;8.65;5.90;;;;;;;50.74;0.00;99189.22;12523607;23;20019;-81
2022/03/23 09:41:38;;;;;;;7.47;5.00;;;;;;;50.53;0.00;99183.38;12536012;23;20330;-81
2022/03/23 09:47:19;;;;;;;5.57;4.47;;;;;;;51.00;0.00;99183.56;12557685;23;20019;-81
2022/03/23 09:52:44;;;;;;;6.50;4.18;;;;;;;51.32;0.00;99176.69;12458979;23;20023;-83
2022/03/23 09:58:20;;;;;;;5.85;4.10;;;;;;;51.61;0.00;99184.13;12523935;23;20015;-81
2022/03/23 10:04:34;;;;;;;6.65;4.47;;;;;;;51.94;0.00;99179.28;12533021;23;20043;-81
2022/03/23 10:10:48;;;;;;;6.57;4.95;;;;;;;53.05;0.00;99169.38;12541683;23;20015;-81
2022/03/23 10:16:58;;;;;;;6.88;3.90;;;;;;;50.71;0.00;99160.50;12542885;23;20019;-79
2022/03/23 10:22:28;;;;;;;5.53;4.18;;;;;;;52.30;0.00;99158.44;12540176;23;20105;-79
2022/03/23 10:27:57;;;;;;;8.30;4.40;;;;;;;48.73;0.00;99156.59;12502825;23;20022;-82
2022/03/23 10:33:36;;;;;;;4.93;4.00;;;;;;;48.91;0.00;99148.72;12542480;23;20334;-83
2022/03/23 10:39:18;;;;;;;6.13;4.03;;;;;;;50.73;0.00;99142.53;12524618;23;20023;-86
2022/03/23 10:45:24;;;;;;;7.00;3.83;;;;;;;49.20;0.00;99136.38;12519508;23;20029;-83
2022/03/23 10:51:07;;;;;;;5.70;3.83;;;;;;;50.38;0.00;99127.25;12362110;24;20058;-86
2022/03/23 10:56:54;;;;;;;11.75;3.78;;;;;;;50.81;0.00;99115.91;12342685;24;20095;-83
2022/03/23 11:02:29;;;;;;;4.68;4.28;;;;;;;48.98;0.00;99126.03;12344893;24;20095;-84
2022/03/23 11:08:15;;;;;;;8.93;6.17;;;;;;;42.17;1.17;99110.56;12361244;24;20391;-84
2022/03/23 11:19:38;;;;;;;9.52;5.78;;;;;;;32.60;3.93;99087.66;12351963;24;20103;-82
2022/03/23 11:25:13;;;;;;;10.75;5.95;;;;;;;30.73;4.71;99090.38;12341980;24;20341;-77
2022/03/23 11:30:57;;;;;;;9.27;5.80;;;;;;;29.07;6.28;99079.06;12375464;23;20023;-78
2022/03/23 11:36:22;;;;;;;7.00;5.72;;;;;;;29.53;5.87;99074.66;12397110;23;20020;-79
2022/03/23 11:41:53;;;;;;;9.20;6.00;;;;;;;29.32;5.72;99062.88;12495457;23;20359;-79
2022/03/23 11:47:38;;;;;;;9.20;5.78;;;;;;;28.38;6.18;99051.34;12519064;23;20098;-79
2022/03/23 11:53:42;;;;;;;7.38;5.45;;;;;;;27.31;6.66;99050.63;12519176;23;20050;-79
2022/03/23 11:59:18;;;;;;;8.45;5.57;;;;;;;26.47;7.79;99045.81;12405695;23;20101;-79
2022/03/23 12:04:48;;;;;;;8.38;5.80;;;;;;;26.14;7.86;99032.03;12499924;23;20450;-79
2022/03/23 12:10:23;;;;;;;8.48;5.30;;;;;;;26.65;7.33;99030.50;12559412;23;20027;-78
2022/03/23 12:15:57;;;;;;;6.85;5.10;;;;;;;26.27;7.43;99019.53;12537951;23;20019;-79
2022/03/23 12:21:23;;;;;;;7.85;4.90;;;;;;;26.44;7.78;99014.94;12539115;23;20018;-79
2022/03/23 12:26:51;;;;;;;7.72;4.43;;;;;;;26.50;7.60;99004.38;12517177;23;20038;-79
2022/03/23 12:32:16;;;;;;;5.45;4.57;;;;;;;25.88;7.77;98994.91;12502941;23;20034;-79
2022/03/23 12:37:41;;;;;;;11.82;4.75;;;;;;;25.86;7.75;99003.41;12498548;23;20385;-80
2022/03/23 12:43:51;;;;;;;10.93;6.18;;;;;;;25.77;8.46;98996.03;12539857;23;20014;-82
2022/03/23 13:00:42;;;;;;;12.23;6.40;;;;;;;25.59;8.84;98979.09;12325125;24;20107;-86
2022/03/23 13:06:07;;;;;;;7.40;6.55;;;;;;;25.56;8.80;98978.28;12338257;24;20427;-85
2022/03/23 13:11:33;;;;;;;10.45;6.70;;;;;;;25.44;8.79;98966.53;12358323;24;20022;-85
2022/03/23 13:16:56;;;;;;;9.80;7.20;;;;;;;25.01;8.74;98964.56;12388763;23;20058;-85
2022/03/23 13:22:38;;;;;;;16.77;7.30;;;;;;;24.36;9.29;98959.69;12519193;23;20023;-85
2022/03/23 13:28:03;;;;;;;10.32;6.80;;;;;;;24.17;9.40;98953.34;12516904;23;20563;-85
2022/03/23 13:33:35;;;;;;;11.10;6.72;;;;;;;23.87;9.58;98955.19;12535655;23;20018;-85
2022/03/23 13:38:57;;;;;;;15.30;6.82;;;;;;;23.93;9.73;98941.88;12480106;23;20018;-85
2022/03/23 13:44:54;;;;;;;14.18;7.32;;;;;;;23.92;9.69;98939.66;12517265;23;20015;-85
2022/03/23 13:50:01;;;;;;;12.18;6.82;;;;;;;23.55;9.79;98937.69;12503977;23;20312;-86
2022/03/23 13:55:29;;;;;;;14.88;7.30;;;;;;;23.33;10.12;98934.75;12537471;23;20443;-85
2022/03/23 14:00:53;;;;;;;9.10;6.30;;;;;;;23.04;10.23;98922.31;12535370;23;20097;-86
2022/03/23 14:06:21;;;;;;;13.60;6.88;;;;;;;22.74;10.55;98924.00;12500995;23;20434;-86
2022/03/23 14:17:23;;;;;;;14.23;6.05;;;;;;;22.49;10.76;98908.84;12518456;23;20378;-86
2022/03/23 14:23:21;;;;;;;10.93;6.30;;;;;;;21.95;11.14;98901.69;12550821;23;20042;-87
2022/03/23 14:28:49;;;;;;;8.57;5.82;;;;;;;21.92;11.25;98898.03;12533226;23;20733;-87
2022/03/23 14:34:12;;;;;;;7.97;5.57;;;;;;;21.97;10.93;98893.22;12515932;23;20049;-87
2022/03/23 14:39:47;;;;;;;8.25;6.13;;;;;;;22.15;11.14;98882.63;12555309;23;20334;-87
2022/03/23 14:45:30;;;;;;;12.55;6.70;;;;;;;22.27;11.25;98873.84;12480414;23;20446;-87
2022/03/23 14:51:01;;;;;;;12.02;6.45;;;;;;;22.12;11.11;98864.03;12526066;23;20030;-87
2022/03/23 14:56:26;;;;;;;12.02;6.38;;;;;;;22.26;11.15;98869.53;12503111;23;20037;-87
2022/03/23 15:01:50;;;;;;;7.30;5.38;;;;;;;22.27;11.02;98862.47;12540157;23;20019;-87
2022/03/23 15:18:31;;;;;;;8.13;5.35;;;;;;;21.86;10.93;98846.59;12527437;23;20473;-85
2022/03/23 15:23:53;;;;;;;10.50;5.75;;;;;;;21.83;11.17;98850.03;12539226;23;20014;-87
2022/03/23 15:29:14;;;;;;;10.00;5.60;;;;;;;21.62;11.21;98845.63;12519194;23;20541;-88
2022/03/23 15:34:35;;;;;;;11.35;7.05;;;;;;;21.43;11.37;98855.50;12499250;23;20090;-87
2022/03/23 15:39:55;;;;;;;12.50;7.03;;;;;;;21.21;11.85;98848.81;12518948;23;20046;-88
2022/03/23 15:45:18;;;;;;;10.48;6.68;;;;;;;21.04;11.78;98845.28;12518009;23;20026;-87
2022/03/23 15:50:39;;;;;;;17.73;7.50;;;;;;;20.91;11.95;98846.13;12518953;23;20022;-87
2022/03/23 15:55:59;;;;;;;14.15;7.40;;;;;;;20.66;12.65;98844.31;12517800;23;20026;-87
2022/03/23 16:01:20;;;;;;;10.18;7.80;;;;;;;20.39;12.67;98847.28;12518503;23;20030;-87
2022/03/23 16:06:42;;;;;;;12.07;7.63;;;;;;;20.26;12.67;98852.38;12480502;23;20015;-88
2022/03/23 16:12:03;;;;;;;15.40;7.40;;;;;;;20.08;12.94;98845.88;12537901;23;20023;-87
2022/03/23 16:17:24;;;;;;;13.75;8.13;;;;;;;19.90;13.37;98844.97;12498452;23;20023;-84
2022/03/23 16:22:46;;;;;;;16.30;9.80;;;;;;;19.67;13.49;98843.88;12557567;23;20015;-82
2022/03/23 16:28:08;;;;;;;14.25;9.40;;;;;;;19.43;13.61;98842.66;12497549;23;20023;-86
2022/03/23 16:33:29;;;;;;;19.65;9.60;;;;;;;19.24;14.00;98841.00;12518190;23;20015;-79
2022/03/23 16:38:50;;;;;;;16.60;9.85;;;;;;;19.03;14.10;98852.66;12517403;23;20054;-80
2022/03/23 16:44:12;;;;;;;13.98;9.68;;;;;;;18.92;14.52;98845.00;12537358;23;20018;-78
2022/03/23 16:49:33;;;;;;;19.50;10.68;;;;;;;18.77;14.53;98846.34;12536134;23;20019;-80
2022/03/23 16:54:54;;;;;;;17.25;10.23;;;;;;;18.58;14.86;98848.16;12516813;23;20015;-87
2022/03/23 17:00:15;;;;;;;15.48;10.40;;;;;;;18.36;15.08;98849.81;12516393;23;20026;-79
2022/03/23 17:16:57;;;;;;;12.20;10.27;;;;;;;17.72;15.94;98853.28;12538476;23;20022;-85
2022/03/23 17:22:18;;;;;;;22.48;14.50;;;;;;;17.51;16.12;98856.28;12535210;23;20019;-78
2022/03/23 17:27:43;;;;;;;16.95;13.38;;;;;;;17.33;16.56;98859.50;12516618;23;20022;-81
2022/03/23 17:33:07;;;;;;;19.23;12.30;;;;;;;17.15;16.68;98866.88;12557410;23;20019;-84
2022/03/23 17:38:28;;;;;;;18.65;12.00;;;;;;;16.97;16.95;98868.63;12536303;23;20059;-84
2022/03/23 17:43:50;;;;;;;19.05;11.85;;;;;;;16.78;17.26;98869.59;12516102;23;20026;-83
2022/03/23 17:49:11;;;;;;;20.27;12.75;;;;;;;16.63;17.46;98870.78;12516440;23;20023;-78
2022/03/23 17:54:31;;;;;;;22.67;13.07;;;;;;;16.45;17.72;98878.84;12517162;23;20030;-78
2022/03/23 17:59:52;;;;;;;20.25;13.57;;;;;;;16.31;18.12;98881.53;12497480;23;20103;-80
2022/03/23 18:05:13;;;;;;;20.02;12.82;;;;;;;16.14;18.44;98873.38;12506435;23;20026;-81
2022/03/23 18:10:34;;;;;;;19.05;14.10;;;;;;;15.99;18.64;98885.81;12521296;23;20019;-81
2022/03/23 18:15:55;;;;;;;19.38;14.13;;;;;;;15.86;18.90;98877.19;12436788;23;20080;-81
2022/03/23 18:21:16;;;;;;;15.80;12.43;;;;;;;15.71;18.86;98879.06;12447555;23;20043;-79
2022/03/23 18:26:49;;;;;;;15.18;12.65;;;;;;;15.52;19.15;98876.38;12500022;23;20458;-80
2022/03/23 18:32:20;;;;;;;17.35;11.68;;;;;;;15.42;19.13;98875.69;12531576;23;20034;-78
2022/03/23 18:37:41;;;;;;;13.88;10.63;;;;;;;15.37;19.16;98874.72;12636259;23;20026;-77
2022/03/23 18:43:02;;;;;;;14.27;10.23;;;;;;;15.34;19.13;98886.41;12665775;23;20434;-77
2022/03/23 18:48:23;;;;;;;16.75;9.88;;;;;;;15.26;19.07;98874.63;12664757;23;20017;-78
2022/03/23 18:53:43;;;;;;;13.98;10.43;;;;;;;15.18;19.13;98881.19;12689485;23;20089;-75
2022/03/23 18:59:04;;;;;;;14.13;9.88;;;;;;;15.13;18.83;98879.44;12691320;23;20022;-75
2022/03/23 19:04:24;;;;;;;12.60;9.27;;;;;;;15.02;19.19;98879.34;12676661;23;20024;-78
2022/03/23 19:09:45;;;;;;;18.02;9.45;;;;;;;14.97;19.22;98886.03;12671474;23;20018;-75
2022/03/23 19:15:10;;;;;;;15.50;9.55;;;;;;;14.90;19.24;98879.25;12706674;23;20345;-75
2022/03/23 19:20:31;;;;;;;14.43;10.43;;;;;;;14.83;19.27;98885.78;12710084;23;20346;-74
2022/03/23 19:25:52;;;;;;;14.70;9.88;;;;;;;14.73;19.37;98888.63;12675808;23;20018;-76
2022/03/23 20:22:43;;;;;;;16.20;8.93;;;;;;;14.11;19.99;98893.34;12611998;23;20996;31
2022/03/23 20:40:36;;;;;;;26.92;18.42;;;;;;;13.85;20.23;98897.78;12615728;23;20091;-80
2022/03/23 20:46:02;;;;;;;17.73;13.05;;;;;;;13.77;20.28;98900.72;12612536;23;20010;-81
2022/03/23 20:51:23;;;;;;;20.73;13.68;;;;;;;13.68;20.42;98898.66;12631674;23;20013;-81
2022/03/23 20:56:44;;;;;;;22.17;13.95;;;;;;;13.59;20.56;98893.78;12628097;23;20022;-84
2022/03/23 21:02:06;;;;;;;16.23;12.52;;;;;;;13.53;20.67;98904.56;12603135;23;20053;-84
2022/03/23 21:07:28;;;;;;;19.45;14.07;;;;;;;13.49;20.98;98909.84;12603513;23;20019;-84
2022/03/23 21:12:48;;;;;;;19.98;13.90;;;;;;;13.39;21.41;98909.84;12564986;23;20050;-84
2022/03/23 21:18:15;;;;;;;20.63;14.35;;;;;;;13.30;21.45;98914.09;12605145;23;20074;-85
2022/03/23 21:23:37;;;;;;;19.63;14.18;;;;;;;13.22;21.90;98913.50;12585532;23;20025;-84
2022/03/23 21:28:58;;;;;;;18.60;13.60;;;;;;;13.15;22.05;98911.53;12564138;23;20019;-86
2022/03/23 21:34:19;;;;;;;23.02;15.40;;;;;;;13.07;22.38;98910.91;12563928;23;20019;-87
2022/03/23 21:39:41;;;;;;;24.40;15.23;;;;;;;12.98;22.94;98908.81;12604915;23;20074;-84
2022/03/23 21:45:08;;;;;;;24.45;15.18;;;;;;;12.90;23.09;98915.25;12565456;23;20089;-81
2022/03/23 21:50:29;;;;;;;26.52;16.08;;;;;;;12.81;23.24;98904.75;12547832;23;20015;-85
2022/03/23 21:55:50;;;;;;;24.00;15.48;;;;;;;12.77;23.21;98912.84;12567816;23;20065;-83
2022/03/23 22:01:11;;;;;;;21.10;15.30;;;;;;;12.76;23.69;98922.59;12606446;23;20090;-84
2022/03/23 22:06:32;;;;;;;23.33;15.48;;;;;;;12.71;23.88;98912.38;12547857;23;20018;-84
2022/03/23 22:11:53;;;;;;;22.73;16.17;;;;;;;12.64;24.20;98904.81;12585285;23;20023;-83
2022/03/23 22:17:13;;;;;;;20.02;14.93;;;;;;;12.61;24.26;98898.31;12563673;23;20046;-84
2022/03/23 22:22:34;;;;;;;23.80;15.38;;;;;;;12.57;24.60;98895.22;12565506;23;20027;-85
2022/03/23 22:27:56;;;;;;;26.25;15.23;;;;;;;12.58;24.44;98895.94;12564503;23;20045;-84
2022/03/23 22:33:16;;;;;;;20.52;15.35;;;;;;;12.53;24.61;98888.53;12584651;23;20022;-84
2022/03/23 22:38:37;;;;;;;24.95;14.70;;;;;;;12.49;24.86;98891.03;12625974;23;20018;-83
2022/03/23 22:43:58;;;;;;;21.13;14.82;;;;;;;12.48;25.12;98883.97;12589799;23;20050;-84
2022/03/23 22:49:19;;;;;;;22.27;14.32;;;;;;;12.44;25.35;98883.63;12544718;23;20019;-84
2022/03/23 22:54:40;;;;;;;23.15;15.48;;;;;;;12.44;25.52;98880.84;12564128;23;20100;-85
2022/03/23 23:00:05;;;;;;;21.50;15.25;;;;;;;12.38;25.80;98888.78;12562793;23;20011;-83
2022/03/23 23:05:27;;;;;;;22.75;15.15;;;;;;;12.26;25.79;98888.56;12563694;23;20015;-84
2022/03/23 23:10:47;;;;;;;19.65;15.10;;;;;;;12.18;25.77;98888.66;12563235;23;20003;-84
2022/03/23 23:16:08;;;;;;;22.83;15.88;;;;;;;12.12;25.94;98890.97;12563812;23;20070;-82
2022/03/23 23:21:29;;;;;;;24.52;15.75;;;;;;;12.04;26.47;98890.31;12624147;23;20023;-84
2022/03/23 23:26:50;;;;;;;21.42;15.30;;;;;;;11.93;26.46;98893.63;12638019;23;20042;-84
2022/03/23 23:32:12;;;;;;;23.08;15.45;;;;;;;11.83;26.64;98887.94;12711639;23;20009;-84
2022/03/23 23:37:34;;;;;;;22.85;16.48;;;;;;;11.70;26.87;98891.06;12711302;23;20066;-84
2022/03/23 23:42:56;;;;;;;24.15;15.90;;;;;;;11.63;27.21;98880.69;12711438;23;20018;-85
2022/03/23 23:48:17;;;;;;;23.85;16.58;;;;;;;11.56;27.46;98876.66;12711678;23;19998;-83
2022/03/23 23:53:39;;;;;;;26.42;17.88;;;;;;;11.51;27.51;98869.25;12692814;23;20017;-85
2022/03/23 23:59:01;;;;;;;25.70;17.40;;;;;;;11.43;27.80;98874.19;12731897;23;20089;-83
